createdAt,value
2023-06-19T04:15:14.098Z,736.00
2023-06-19T04:16:14.143Z,780.00
2023-06-19T04:17:14.059Z,812.00
2023-06-19T04:18:14.063Z,856.00
2023-06-19T04:19:14.058Z,924.00
2023-06-19T04:20:14.041Z,964.00
2023-06-19T04:21:14.008Z,1008.00
2023-06-19T04:22:14.009Z,1064.00
2023-06-19T04:23:14.049Z,1092.00
2023-06-19T04:24:13.998Z,1108.00
2023-06-19T04:25:13.953Z,1096.00
2023-06-19T04:26:13.938Z,1088.00
2023-06-19T04:27:13.937Z,1096.00
2023-06-19T04:28:13.925Z,1124.00
2023-06-19T04:29:13.906Z,1184.00
2023-06-19T04:30:13.911Z,1244.00
2023-06-19T04:31:13.878Z,1320.00
2023-06-19T04:32:13.899Z,1368.00
2023-06-19T04:33:13.986Z,1420.00
2023-06-19T04:34:13.839Z,1452.00
2023-06-19T04:35:13.836Z,1488.00
2023-06-19T04:36:13.825Z,1580.00
2023-06-19T04:37:13.827Z,1640.00
2023-06-19T04:38:13.796Z,1684.00
2023-06-19T04:39:13.796Z,1740.00
2023-06-19T04:40:13.763Z,1792.00
2023-06-19T04:41:13.763Z,1824.00
2023-06-19T04:42:13.736Z,1864.00
2023-06-19T04:43:13.757Z,1932.00
2023-06-19T04:44:13.723Z,1988.00
2023-06-19T04:45:13.703Z,1940.00
2023-06-19T04:46:13.691Z,2100.00
2023-06-19T04:47:13.672Z,2164.00
2023-06-19T04:48:13.758Z,2228.00
2023-06-19T04:49:13.649Z,2272.00
2023-06-19T04:50:13.653Z,2312.00
2023-06-19T04:51:13.643Z,2312.00
2023-06-19T04:52:13.640Z,2284.00
2023-06-19T04:53:13.594Z,2304.00
2023-06-19T04:54:13.587Z,2332.00
2023-06-19T04:55:13.582Z,2412.00
2023-06-19T04:56:13.557Z,2520.00
2023-06-19T04:57:13.545Z,2580.00
2023-06-19T04:58:13.545Z,2644.00
2023-06-19T04:59:13.524Z,2760.00
2023-06-19T05:00:13.515Z,2872.00
2023-06-19T05:01:13.520Z,2856.00
2023-06-19T05:02:13.490Z,2820.00
2023-06-19T05:03:13.462Z,2628.00
2023-06-19T05:04:13.492Z,2804.00
2023-06-19T05:05:13.451Z,2852.00
2023-06-19T05:06:13.421Z,2624.00
2023-06-19T05:07:13.413Z,2652.00
2023-06-19T05:08:13.401Z,2588.00
2023-06-19T05:09:13.410Z,2816.00
2023-06-19T05:10:13.382Z,2784.00
2023-06-19T05:11:13.361Z,2592.00
2023-06-19T05:12:13.344Z,3008.00
2023-06-19T05:13:13.344Z,2788.00
2023-06-19T05:14:13.340Z,2592.00
2023-06-19T05:15:13.311Z,2592.00
2023-06-19T05:16:13.355Z,2636.00
2023-06-19T05:17:13.307Z,2808.00
2023-06-19T05:18:13.303Z,2740.00
2023-06-19T05:19:13.273Z,3044.00
2023-06-19T05:20:13.265Z,3212.00
2023-06-19T05:21:13.233Z,3396.00
2023-06-19T05:22:13.233Z,3464.00
2023-06-19T05:23:13.221Z,3492.00
2023-06-19T05:24:13.252Z,3532.00
2023-06-19T05:25:13.186Z,3628.00
2023-06-19T05:26:13.167Z,3672.00
2023-06-19T05:27:13.171Z,3704.00
2023-06-19T05:28:13.157Z,3684.00
2023-06-19T05:29:13.130Z,3776.00
2023-06-19T05:30:13.120Z,3820.00
2023-06-19T05:31:13.113Z,3776.00
2023-06-19T05:32:13.097Z,3868.00
2023-06-19T05:33:13.105Z,3868.00
2023-06-19T05:34:13.051Z,3864.00
2023-06-19T05:35:16.254Z,3924.00
2023-06-19T05:36:13.038Z,3980.00
2023-06-19T05:37:13.046Z,4008.00
2023-06-19T05:38:13.009Z,4060.00
2023-06-19T05:39:13.009Z,4048.00
2023-06-19T05:40:12.995Z,4076.00
2023-06-19T05:41:12.977Z,4028.00
2023-06-19T05:42:12.970Z,4136.00
2023-06-19T05:43:12.951Z,4144.00
2023-06-19T05:44:12.928Z,4180.00
2023-06-19T05:45:12.926Z,4180.00
2023-06-19T05:46:13.091Z,4224.00
2023-06-19T05:47:12.952Z,4272.00
2023-06-19T05:48:12.877Z,4320.00
2023-06-19T05:49:12.866Z,4332.00
2023-06-19T05:50:12.862Z,4388.00
2023-06-19T05:51:12.855Z,4448.00
2023-06-19T05:52:12.826Z,4520.00
2023-06-19T05:53:15.439Z,4680.00
2023-06-19T05:54:12.827Z,4700.00
2023-06-19T05:55:12.863Z,4604.00
2023-06-19T05:56:12.785Z,4676.00
2023-06-19T05:57:12.813Z,4484.00
2023-06-19T05:58:12.763Z,4724.00
2023-06-19T05:59:12.738Z,4728.00
2023-06-19T06:00:12.736Z,4780.00
2023-06-19T06:01:12.752Z,4728.00
2023-06-19T06:02:12.709Z,4780.00
2023-06-19T06:03:12.690Z,4804.00
2023-06-19T06:04:12.691Z,4824.00
2023-06-19T06:05:12.670Z,4764.00
2023-06-19T06:06:12.644Z,4768.00
2023-06-19T06:07:12.626Z,4768.00
2023-06-19T06:08:12.615Z,4904.00
2023-06-19T06:09:12.606Z,4732.00
2023-06-19T06:10:12.599Z,4760.00
2023-06-19T06:11:12.570Z,4840.00
2023-06-19T06:12:12.575Z,4128.00
2023-06-19T06:13:12.544Z,5332.00
2023-06-19T06:14:13.565Z,5388.00
2023-06-19T06:15:12.548Z,5052.00
2023-06-19T06:16:12.558Z,5340.00
2023-06-19T06:17:12.500Z,5436.00
2023-06-19T06:18:12.522Z,5544.00
2023-06-19T06:19:12.492Z,5612.00
2023-06-19T06:20:12.474Z,5620.00
2023-06-19T06:21:12.451Z,5692.00
2023-06-19T06:22:12.433Z,5756.00
2023-06-19T06:23:12.427Z,5736.00
2023-06-19T06:24:12.457Z,5800.00
2023-06-19T06:25:13.956Z,5848.00
2023-06-19T06:26:12.448Z,6048.00
2023-06-19T06:27:12.368Z,6208.00
2023-06-19T06:28:12.364Z,6032.00
2023-06-19T06:29:12.353Z,5808.00
2023-06-19T06:30:12.338Z,6092.00
2023-06-19T06:31:12.307Z,6724.00
2023-06-19T06:32:12.300Z,6680.00
2023-06-19T06:33:12.298Z,6764.00
2023-06-19T06:34:12.274Z,7056.00
2023-06-19T06:35:12.277Z,6908.00
2023-06-19T06:36:19.277Z,6764.00
2023-06-19T06:37:13.235Z,6884.00
2023-06-19T06:38:12.231Z,5576.00
2023-06-19T06:39:12.216Z,5192.00
2023-06-19T06:40:12.474Z,6664.00
2023-06-19T06:41:12.179Z,5692.00
2023-06-19T06:42:12.203Z,7076.00
2023-06-19T06:43:12.177Z,7116.00
2023-06-19T06:44:12.175Z,6896.00
2023-06-19T06:45:12.356Z,6364.00
2023-06-19T06:46:12.172Z,6600.00
2023-06-19T06:47:12.110Z,6556.00
2023-06-19T06:48:12.146Z,6740.00
2023-06-19T06:49:12.079Z,7232.00
2023-06-19T06:50:12.094Z,6420.00
2023-06-19T06:51:12.050Z,7584.00
2023-06-19T06:52:12.050Z,7900.00
2023-06-19T06:53:12.028Z,7160.00
2023-06-19T06:54:12.014Z,7904.00
2023-06-19T06:55:12.004Z,7492.00
2023-06-19T06:56:12.047Z,6844.00
2023-06-19T06:57:11.979Z,7320.00
2023-06-19T06:58:11.960Z,7720.00
2023-06-19T06:59:11.938Z,7608.00
2023-06-19T07:00:11.938Z,7672.00
2023-06-19T07:01:11.958Z,6356.00
2023-06-19T07:02:11.961Z,6944.00
2023-06-19T07:03:12.117Z,7880.00
2023-06-19T07:04:11.951Z,7644.00
2023-06-19T07:05:11.879Z,8232.00
2023-06-19T07:06:11.871Z,8664.00
2023-06-19T07:07:11.848Z,8604.00
2023-06-19T07:08:11.843Z,7956.00
2023-06-19T07:09:11.832Z,7468.00
2023-06-19T07:10:11.819Z,7340.00
2023-06-19T07:11:11.799Z,7660.00
2023-06-19T07:12:11.786Z,8160.00
2023-06-19T07:13:11.768Z,8216.00
2023-06-19T07:14:11.760Z,8372.00
2023-06-19T07:15:11.759Z,8672.00
2023-06-19T07:16:11.746Z,9012.00
2023-06-19T07:17:11.774Z,9308.00
2023-06-19T07:18:11.779Z,8716.00
2023-06-19T07:19:11.701Z,8660.00
2023-06-19T07:20:11.697Z,8844.00
2023-06-19T07:21:11.674Z,9292.00
2023-06-19T07:22:11.680Z,8620.00
2023-06-19T07:23:11.649Z,8176.00
2023-06-19T07:24:11.643Z,8472.00
2023-06-19T07:25:11.696Z,9024.00
2023-06-19T07:26:11.627Z,8948.00
2023-06-19T07:27:11.606Z,9008.00
2023-06-19T07:28:11.600Z,9532.00
2023-06-19T07:29:11.583Z,8968.00
2023-06-19T07:30:12.842Z,7908.00
2023-06-19T07:31:11.558Z,8192.00
2023-06-19T07:32:11.532Z,7852.00
2023-06-19T07:33:11.560Z,7152.00
2023-06-19T07:34:11.527Z,7040.00
2023-06-19T07:35:11.510Z,7224.00
2023-06-19T07:36:11.473Z,8068.00
2023-06-19T07:37:11.470Z,8844.00
2023-06-19T07:38:11.476Z,7976.00
2023-06-19T07:39:11.482Z,8740.00
2023-06-19T07:40:11.416Z,8496.00
2023-06-19T07:41:11.425Z,7848.00
2023-06-19T07:42:11.410Z,7784.00
2023-06-19T07:43:11.387Z,8880.00
2023-06-19T07:44:11.403Z,8212.00
2023-06-19T07:45:11.380Z,7512.00
2023-06-19T07:46:11.393Z,7952.00
2023-06-19T07:47:11.340Z,7580.00
2023-06-19T07:48:11.439Z,8352.00
2023-06-19T07:49:11.323Z,7824.00
2023-06-19T07:50:11.309Z,8272.00
2023-06-19T07:51:11.285Z,8336.00
2023-06-19T07:52:11.290Z,8716.00
2023-06-19T07:53:11.278Z,8876.00
2023-06-19T07:54:11.252Z,9088.00
2023-06-19T07:55:11.255Z,8760.00
2023-06-19T07:56:11.265Z,9528.00
2023-06-19T07:57:11.245Z,9540.00
2023-06-19T07:58:11.212Z,9176.00
2023-06-19T07:59:11.197Z,9184.00
2023-06-19T08:00:11.180Z,8860.00
2023-06-19T08:01:11.167Z,8820.00
2023-06-19T08:02:11.183Z,8516.00
2023-06-19T08:03:11.233Z,8828.00
2023-06-19T08:04:11.138Z,9812.00
2023-06-19T08:05:11.382Z,9960.00
2023-06-19T08:06:11.099Z,10104.00
2023-06-19T08:07:11.097Z,9920.00
2023-06-19T08:08:11.064Z,10136.00
2023-06-19T08:09:11.071Z,9028.00
2023-06-19T08:10:14.190Z,8260.00
2023-06-19T08:11:11.040Z,7156.00
2023-06-19T08:12:11.046Z,6696.00
2023-06-19T08:13:11.037Z,6496.00
2023-06-19T08:14:10.996Z,6380.00
2023-06-19T08:15:10.995Z,6588.00
2023-06-19T08:16:10.983Z,6500.00
2023-06-19T08:17:11.123Z,6804.00
2023-06-19T08:18:10.960Z,6992.00
2023-06-19T08:19:10.944Z,7524.00
2023-06-19T08:20:11.083Z,7764.00
2023-06-19T08:21:10.906Z,8256.00
2023-06-19T08:22:10.882Z,8044.00
2023-06-19T08:23:10.879Z,7184.00
2023-06-19T08:24:10.888Z,6424.00
2023-06-19T08:25:10.863Z,6484.00
2023-06-19T08:26:10.840Z,6072.00
2023-06-19T08:27:10.861Z,5460.00
2023-06-19T08:28:10.830Z,5316.00
2023-06-19T08:29:10.800Z,5096.00
2023-06-19T08:30:10.803Z,5060.00
2023-06-19T08:31:10.793Z,5024.00
2023-06-19T08:32:10.753Z,4792.00
2023-06-19T08:33:10.769Z,5132.00
2023-06-19T08:34:10.738Z,5504.00
2023-06-19T08:35:10.742Z,5672.00
2023-06-19T08:36:10.721Z,5776.00
2023-06-19T08:37:10.713Z,6164.00
2023-06-19T08:38:10.680Z,6056.00
2023-06-19T08:39:10.668Z,5616.00
2023-06-19T08:40:10.780Z,5228.00
2023-06-19T08:41:10.638Z,5188.00
2023-06-19T08:42:10.634Z,5456.00
2023-06-19T08:43:10.628Z,6216.00
2023-06-19T08:44:10.698Z,7060.00
2023-06-19T08:45:10.708Z,7720.00
2023-06-19T08:46:10.644Z,8120.00
2023-06-19T08:47:10.580Z,8508.00
2023-06-19T08:48:10.587Z,8820.00
2023-06-19T08:49:10.584Z,9120.00
2023-06-19T08:50:10.521Z,9368.00
2023-06-19T08:51:10.528Z,9200.00
2023-06-19T08:52:10.518Z,9040.00
2023-06-19T08:53:10.499Z,9148.00
2023-06-19T08:54:10.486Z,8964.00
2023-06-19T08:55:10.470Z,9140.00
2023-06-19T08:56:10.458Z,9444.00
2023-06-19T08:57:10.482Z,9680.00
2023-06-19T08:58:10.441Z,10056.00
2023-06-19T08:59:10.436Z,10136.00
2023-06-19T09:00:10.401Z,10444.00
2023-06-19T09:01:10.390Z,11016.00
2023-06-19T09:02:10.388Z,11544.00
2023-06-19T09:03:14.729Z,11484.00
2023-06-19T09:04:17.488Z,11568.00
2023-06-19T09:05:10.339Z,11648.00
2023-06-19T09:06:10.547Z,12004.00
2023-06-19T09:07:10.455Z,11764.00
2023-06-19T09:08:10.313Z,12044.00
2023-06-19T09:09:10.285Z,12164.00
2023-06-19T09:10:10.271Z,11776.00
2023-06-19T09:11:11.024Z,11560.00
2023-06-19T09:12:10.255Z,10916.00
2023-06-19T09:13:10.248Z,10944.00
2023-06-19T09:14:10.228Z,11448.00
2023-06-19T09:15:10.219Z,11908.00
2023-06-19T09:16:10.208Z,11788.00
2023-06-19T09:17:12.036Z,12016.00
2023-06-19T09:18:10.344Z,12268.00
2023-06-19T09:19:10.168Z,12880.00
2023-06-19T09:20:10.162Z,13364.00
2023-06-19T09:21:10.137Z,13216.00
2023-06-19T09:22:10.130Z,12216.00
2023-06-19T09:23:10.152Z,12392.00
2023-06-19T09:24:10.119Z,12356.00
2023-06-19T09:25:10.081Z,11924.00
2023-06-19T09:26:10.062Z,11828.00
2023-06-19T09:27:10.092Z,11508.00
2023-06-19T09:28:10.049Z,10820.00
2023-06-19T09:29:14.635Z,10644.00
2023-06-19T09:30:11.014Z,10944.00
2023-06-19T09:31:10.036Z,10712.00
2023-06-19T09:32:09.998Z,11608.00
2023-06-19T09:33:10.078Z,11008.00
2023-06-19T09:34:09.965Z,10328.00
2023-06-19T09:35:09.956Z,9788.00
2023-06-19T09:36:09.950Z,9920.00
2023-06-19T09:37:09.946Z,9760.00
2023-06-19T09:38:09.917Z,8936.00
2023-06-19T09:39:09.905Z,8288.00
2023-06-19T09:40:09.904Z,7500.00
2023-06-19T09:41:09.962Z,7844.00
2023-06-19T09:42:09.864Z,8528.00
2023-06-19T09:43:09.876Z,9040.00
2023-06-19T09:44:09.844Z,9436.00
2023-06-19T09:45:09.846Z,9764.00
2023-06-19T09:46:09.832Z,9188.00
2023-06-19T09:47:09.837Z,8712.00
2023-06-19T09:48:09.834Z,8488.00
2023-06-19T09:49:09.780Z,8160.00
2023-06-19T09:50:09.784Z,8608.00
2023-06-19T09:51:09.756Z,8776.00
2023-06-19T09:52:09.735Z,8144.00
2023-06-19T09:53:09.726Z,7452.00
2023-06-19T09:54:09.771Z,7368.00
2023-06-19T09:55:09.727Z,7712.00
2023-06-19T09:56:09.686Z,8104.00
2023-06-19T09:57:09.680Z,7648.00
2023-06-19T09:58:09.669Z,6532.00
2023-06-19T09:59:09.663Z,5976.00
2023-06-19T10:00:09.665Z,6268.00
2023-06-19T10:01:09.629Z,7128.00
2023-06-19T10:02:09.638Z,8424.00
2023-06-19T10:03:09.849Z,9464.00
2023-06-19T10:04:09.693Z,9752.00
2023-06-19T10:05:10.394Z,9588.00
2023-06-19T10:06:09.561Z,8820.00
2023-06-19T10:07:09.557Z,8400.00
2023-06-19T10:08:09.536Z,9004.00
2023-06-19T10:09:09.576Z,9680.00
2023-06-19T10:10:09.522Z,9964.00
2023-06-19T10:11:09.516Z,10568.00
2023-06-19T10:12:09.504Z,11072.00
2023-06-19T10:13:09.476Z,11776.00
2023-06-19T10:14:09.468Z,12864.00
2023-06-19T10:15:09.456Z,13292.00
2023-06-19T10:16:09.433Z,13020.00
2023-06-19T10:17:09.644Z,13328.00
2023-06-19T10:18:09.471Z,14116.00
2023-06-19T10:19:09.491Z,14688.00
2023-06-19T10:20:09.389Z,15296.00
2023-06-19T10:21:09.375Z,16864.00
2023-06-19T10:22:09.367Z,16928.00
2023-06-19T10:23:09.370Z,17280.00
2023-06-19T10:24:09.384Z,16224.00
2023-06-19T10:25:09.321Z,15552.00
2023-06-19T10:26:09.332Z,14656.00
2023-06-19T10:27:09.327Z,12560.00
2023-06-19T10:28:09.317Z,12776.00
2023-06-19T10:29:09.270Z,12588.00
2023-06-19T10:30:14.046Z,13292.00
2023-06-19T10:31:10.245Z,13548.00
2023-06-19T10:32:09.253Z,14016.00
2023-06-19T10:33:09.236Z,13320.00
2023-06-19T10:34:09.213Z,13184.00
2023-06-19T10:35:09.188Z,9680.00
2023-06-19T10:36:09.182Z,8032.00
2023-06-19T10:37:09.170Z,6448.00
2023-06-19T10:38:09.165Z,6628.00
2023-06-19T10:39:09.138Z,7776.00
2023-06-19T10:40:09.130Z,9180.00
2023-06-19T10:41:09.115Z,10496.00
2023-06-19T10:42:09.117Z,11196.00
2023-06-19T10:43:09.086Z,10284.00
2023-06-19T10:44:09.163Z,9640.00
2023-06-19T10:45:09.068Z,9936.00
2023-06-19T10:46:09.103Z,11036.00
2023-06-19T10:47:09.049Z,11972.00
2023-06-19T10:48:09.068Z,11724.00
2023-06-19T10:49:09.026Z,11924.00
2023-06-19T10:51:08.994Z,11832.00
2023-06-19T10:52:09.002Z,13076.00
2023-06-19T10:53:08.953Z,14208.00
2023-06-19T10:54:08.961Z,13948.00
2023-06-19T10:55:08.936Z,14240.00
2023-06-19T10:56:08.948Z,14848.00
2023-06-19T10:57:08.901Z,15264.00
2023-06-19T10:58:08.905Z,14492.00
2023-06-19T10:59:08.881Z,15744.00
2023-06-19T11:00:08.880Z,13804.00
2023-06-19T11:01:08.860Z,14080.00
2023-06-19T11:02:08.868Z,12208.00
2023-06-19T11:03:08.872Z,11236.00
2023-06-19T11:04:08.835Z,10660.00
2023-06-19T11:05:08.816Z,10484.00
2023-06-19T11:06:08.790Z,10176.00
2023-06-19T11:07:08.774Z,10148.00
2023-06-19T11:08:08.769Z,10192.00
2023-06-19T11:09:08.751Z,10552.00
2023-06-19T11:10:08.762Z,11088.00
2023-06-19T11:11:08.722Z,11664.00
2023-06-19T11:12:08.714Z,11628.00
2023-06-19T11:13:08.697Z,11852.00
2023-06-19T11:14:08.692Z,11684.00
2023-06-19T11:15:08.686Z,10824.00
2023-06-19T11:16:08.694Z,11244.00
2023-06-19T11:17:08.687Z,10336.00
2023-06-19T11:18:08.650Z,10688.00
2023-06-19T11:19:08.623Z,12036.00
2023-06-19T11:20:08.636Z,12268.00
2023-06-19T11:21:08.691Z,14560.00
2023-06-19T11:22:08.595Z,15296.00
2023-06-19T11:23:08.609Z,14784.00
2023-06-19T11:24:08.591Z,13664.00
2023-06-19T11:25:08.570Z,12408.00
2023-06-19T11:26:08.539Z,12740.00
2023-06-19T11:27:08.518Z,13244.00
2023-06-19T11:28:08.515Z,13560.00
2023-06-19T11:29:10.190Z,14364.00
2023-06-19T11:30:08.545Z,14768.00
2023-06-19T11:31:08.562Z,14540.00
2023-06-19T11:32:08.468Z,14576.00
2023-06-19T11:33:08.453Z,15108.00
2023-06-19T11:34:08.449Z,16864.00
2023-06-19T11:35:08.447Z,16928.00
2023-06-19T11:36:08.417Z,14944.00
2023-06-19T11:37:08.401Z,13292.00
2023-06-19T11:38:08.403Z,10772.00
2023-06-19T11:39:08.386Z,9340.00
2023-06-19T11:40:08.372Z,9268.00
2023-06-19T11:41:08.360Z,9500.00
2023-06-19T11:42:08.342Z,10376.00
2023-06-19T11:43:08.329Z,10944.00
2023-06-19T11:44:08.341Z,11884.00
2023-06-19T11:45:08.292Z,13068.00
2023-06-19T11:46:08.306Z,13168.00
2023-06-19T11:47:08.271Z,13468.00
2023-06-19T11:48:08.563Z,14032.00
2023-06-19T11:49:08.243Z,14688.00
2023-06-19T11:50:08.264Z,14880.00
2023-06-19T11:51:08.220Z,14944.00
2023-06-19T11:52:08.250Z,14592.00
2023-06-19T11:53:08.216Z,15040.00
2023-06-19T11:54:08.193Z,15296.00
2023-06-19T11:55:08.178Z,16288.00
2023-06-19T11:56:08.168Z,16192.00
2023-06-19T11:57:08.171Z,15392.00
2023-06-19T11:58:08.138Z,12684.00
2023-06-19T11:59:08.137Z,11956.00
2023-06-19T12:00:08.135Z,11548.00
2023-06-19T12:01:08.100Z,11524.00
2023-06-19T12:02:08.204Z,12528.00
2023-06-19T12:03:08.257Z,14120.00
2023-06-19T12:04:08.394Z,16608.00
2023-06-19T12:05:08.065Z,15968.00
2023-06-19T12:06:08.284Z,16352.00
2023-06-19T12:07:08.039Z,16544.00
2023-06-19T12:08:08.015Z,17152.00
2023-06-19T12:09:08.049Z,16416.00
2023-06-19T12:10:07.976Z,16576.00
2023-06-19T12:11:07.988Z,15168.00
2023-06-19T12:12:07.960Z,15232.00
2023-06-19T12:13:07.962Z,14444.00
2023-06-19T12:14:07.929Z,14128.00
2023-06-19T12:15:07.943Z,14400.00
2023-06-19T12:16:07.917Z,13140.00
2023-06-19T12:17:07.986Z,12444.00
2023-06-19T12:18:07.945Z,12192.00
2023-06-19T12:19:07.875Z,10808.00
2023-06-19T12:20:07.871Z,10940.00
2023-06-19T12:21:15.009Z,10940.00
2023-06-19T12:22:08.824Z,12228.00
2023-06-19T12:23:07.836Z,13436.00
2023-06-19T12:24:07.845Z,13452.00
2023-06-19T12:25:07.813Z,13896.00
2023-06-19T12:26:07.780Z,15360.00
2023-06-19T12:27:07.774Z,16544.00
2023-06-19T12:28:07.752Z,17568.00
2023-06-19T12:29:07.862Z,17664.00
2023-06-19T12:30:07.736Z,17824.00
2023-06-19T12:31:07.777Z,17824.00
2023-06-19T12:32:07.702Z,17120.00
2023-06-19T12:33:07.749Z,15776.00
2023-06-19T12:35:07.681Z,14912.00
2023-06-19T12:36:07.654Z,15328.00
2023-06-19T12:37:07.688Z,16192.00
2023-06-19T12:38:07.805Z,17024.00
2023-06-19T12:39:07.636Z,16928.00
2023-06-19T12:40:07.604Z,16544.00
2023-06-19T12:41:07.595Z,16768.00
2023-06-19T12:42:07.571Z,15200.00
2023-06-19T12:43:07.560Z,13492.00
2023-06-19T12:44:07.562Z,12852.00
2023-06-19T12:45:07.593Z,12480.00
2023-06-19T12:46:07.601Z,11936.00
2023-06-19T12:47:07.531Z,12592.00
2023-06-19T12:48:07.560Z,13516.00
2023-06-19T12:49:07.516Z,14724.00
2023-06-19T12:50:07.497Z,15232.00
2023-06-19T12:51:07.487Z,14464.00
2023-06-19T12:52:07.449Z,13092.00
2023-06-19T12:53:07.465Z,12408.00
2023-06-19T12:54:07.441Z,12772.00
2023-06-19T12:55:07.409Z,13180.00
2023-06-19T12:56:11.135Z,13776.00
2023-06-19T12:57:08.388Z,14760.00
2023-06-19T12:58:07.378Z,15072.00
2023-06-19T12:59:07.378Z,15104.00
2023-06-19T13:00:07.346Z,14880.00
2023-06-19T13:01:07.455Z,13812.00
2023-06-19T13:02:07.344Z,13000.00
2023-06-19T13:03:07.395Z,12752.00
2023-06-19T13:04:07.465Z,12804.00
2023-06-19T13:05:07.289Z,12936.00
2023-06-19T13:06:07.267Z,12984.00
2023-06-19T13:07:07.270Z,13320.00
2023-06-19T13:08:07.259Z,14224.00
2023-06-19T13:09:07.245Z,14976.00
2023-06-19T13:10:07.425Z,15136.00
2023-06-19T13:11:07.220Z,14752.00
2023-06-19T13:12:07.214Z,13912.00
2023-06-19T13:13:07.190Z,14044.00
2023-06-19T13:14:07.183Z,14096.00
2023-06-19T13:15:07.180Z,14008.00
2023-06-19T13:16:07.196Z,13528.00
2023-06-19T13:17:07.210Z,13756.00
2023-06-19T13:18:07.203Z,14720.00
2023-06-19T13:19:07.229Z,15104.00
2023-06-19T13:20:07.097Z,15072.00
2023-06-19T13:21:07.102Z,14784.00
2023-06-19T13:22:07.083Z,14784.00
2023-06-19T13:23:07.063Z,14880.00
2023-06-19T13:24:07.136Z,15136.00
2023-06-19T13:25:07.067Z,15296.00
2023-06-19T13:26:07.051Z,15776.00
2023-06-19T13:27:07.008Z,15904.00
2023-06-19T13:28:06.994Z,16000.00
2023-06-19T13:29:07.003Z,15872.00
2023-06-19T13:30:07.034Z,15328.00
2023-06-19T13:31:06.978Z,14848.00
2023-06-19T13:32:06.944Z,14020.00
2023-06-19T13:33:06.954Z,14588.00
2023-06-19T13:34:06.925Z,15488.00
2023-06-19T13:35:06.913Z,15872.00
2023-06-19T13:36:06.906Z,16352.00
2023-06-19T13:37:06.883Z,18336.00
2023-06-19T13:38:06.862Z,18464.00
2023-06-19T13:39:06.874Z,18592.00
2023-06-19T13:40:06.864Z,18368.00
2023-06-19T13:41:06.864Z,18432.00
2023-06-19T13:42:06.847Z,18496.00
2023-06-19T13:43:06.838Z,18432.00
2023-06-19T13:44:06.804Z,18432.00
2023-06-19T13:45:06.801Z,18624.00
2023-06-19T13:46:06.768Z,19776.00
2023-06-19T13:47:06.929Z,24096.00
2023-06-19T13:48:06.806Z,28800.00
2023-06-19T13:49:06.750Z,35360.00
2023-06-19T13:50:06.729Z,43360.00
2023-06-19T13:51:06.730Z,50144.00
2023-06-19T13:52:06.768Z,55968.00
2023-06-19T13:53:06.692Z,58656.00
2023-06-19T13:54:06.689Z,57248.00
2023-06-19T13:55:06.672Z,55744.00
2023-06-19T13:56:06.641Z,57984.00
2023-06-19T13:57:06.636Z,57856.00
2023-06-19T13:58:06.621Z,56256.00
2023-06-19T13:59:06.624Z,54336.00
2023-06-19T14:00:06.583Z,47680.00
2023-06-19T14:01:06.645Z,27104.00
2023-06-19T14:02:06.579Z,18496.00
2023-06-19T14:03:06.673Z,18240.00
2023-06-19T14:04:06.557Z,18272.00
2023-06-19T14:05:06.536Z,19008.00
2023-06-19T14:06:06.566Z,16076.00
2023-06-19T14:07:06.510Z,17760.00
2023-06-19T14:08:06.516Z,15372.00
2023-06-19T14:09:06.498Z,17824.00
2023-06-19T14:10:06.484Z,15356.00
2023-06-19T14:11:06.452Z,14456.00
2023-06-19T14:12:06.524Z,15988.00
2023-06-19T14:13:06.442Z,58496.00
2023-06-19T14:14:06.430Z,56992.00
2023-06-19T14:15:06.443Z,56416.00
2023-06-19T14:16:06.398Z,56800.00
2023-06-19T14:17:06.446Z,56544.00
2023-06-19T14:18:06.421Z,25632.00
2023-06-19T14:19:06.357Z,56928.00
2023-06-19T14:20:06.340Z,56832.00
2023-06-19T14:21:06.348Z,55840.00
2023-06-19T14:22:06.382Z,57952.00
2023-06-19T14:23:06.327Z,45696.00
2023-06-19T14:24:06.342Z,58048.00
2023-06-19T14:25:06.291Z,57056.00
2023-06-19T14:26:06.277Z,56992.00
2023-06-19T14:27:06.272Z,56896.00
2023-06-19T14:28:06.265Z,57856.00
2023-06-19T14:29:06.240Z,59648.00
2023-06-19T14:30:06.229Z,59296.00
2023-06-19T14:31:06.215Z,58816.00
2023-06-19T14:32:06.218Z,58400.00
2023-06-19T14:33:06.244Z,59328.00
2023-06-19T14:34:06.184Z,59392.00
2023-06-19T14:35:06.170Z,58848.00
2023-06-19T14:36:06.178Z,57952.00
2023-06-19T14:37:06.161Z,17760.00
2023-06-19T14:38:06.171Z,51872.00
2023-06-19T14:39:06.139Z,27584.00
2023-06-19T14:40:06.128Z,12584.00
2023-06-19T14:41:06.087Z,12612.00
2023-06-19T14:42:06.100Z,12988.00
2023-06-19T14:43:06.070Z,14208.00
2023-06-19T14:44:06.058Z,49728.00
2023-06-19T14:45:06.040Z,49664.00
2023-06-19T14:46:06.034Z,52288.00
2023-06-19T14:47:06.110Z,52384.00
2023-06-19T14:48:06.032Z,52192.00
2023-06-19T14:49:05.992Z,54304.00
2023-06-19T14:50:05.991Z,55520.00
2023-06-19T14:51:05.963Z,57216.00
2023-06-19T14:52:05.977Z,56448.00
2023-06-19T14:53:05.951Z,54976.00
2023-06-19T14:54:05.937Z,53568.00
2023-06-19T14:55:05.923Z,53056.00
2023-06-19T14:56:05.925Z,52864.00
2023-06-19T14:57:05.909Z,52352.00
2023-06-19T14:58:05.892Z,50944.00
2023-06-19T14:59:05.872Z,23072.00
2023-06-19T15:00:05.857Z,35360.00
2023-06-19T15:01:05.852Z,33472.00
2023-06-19T15:02:05.917Z,50432.00
2023-06-19T15:03:05.946Z,50240.00
2023-06-19T15:04:12.947Z,49920.00
2023-06-19T15:05:07.353Z,48992.00
2023-06-19T15:06:05.805Z,48032.00
2023-06-19T15:07:05.777Z,47296.00
2023-06-19T15:08:05.761Z,14780.00
2023-06-19T15:09:05.893Z,20352.00
2023-06-19T15:10:05.807Z,17888.00
2023-06-19T15:11:05.762Z,51840.00
2023-06-19T15:12:05.715Z,12664.00
2023-06-19T15:13:05.693Z,12240.00
2023-06-19T15:14:05.702Z,11952.00
2023-06-19T15:15:05.695Z,12008.00
2023-06-19T15:16:05.662Z,13036.00
2023-06-19T15:17:05.645Z,13424.00
2023-06-19T15:18:05.704Z,35712.00
2023-06-19T15:19:05.674Z,26112.00
2023-06-19T15:20:05.667Z,15852.00
2023-06-19T15:21:05.602Z,23360.00
2023-06-19T15:22:05.591Z,19648.00
2023-06-19T15:23:05.576Z,44640.00
2023-06-19T15:24:05.685Z,48576.00
2023-06-19T15:25:05.567Z,49792.00
2023-06-19T15:26:05.541Z,47744.00
2023-06-19T15:27:05.523Z,48480.00
2023-06-19T15:28:05.517Z,45728.00
2023-06-19T15:29:05.520Z,14820.00
2023-06-19T15:30:05.495Z,47296.00
2023-06-19T15:31:05.482Z,47840.00
2023-06-19T15:32:05.471Z,49088.00
2023-06-19T15:33:05.476Z,44352.00
2023-06-19T15:34:05.456Z,46464.00
2023-06-19T15:35:05.429Z,47456.00
2023-06-19T15:36:05.428Z,48928.00
2023-06-19T15:37:05.410Z,49664.00
2023-06-19T15:38:05.409Z,46560.00
2023-06-19T15:39:05.391Z,45920.00
2023-06-19T15:40:05.373Z,45856.00
2023-06-19T15:41:05.356Z,46176.00
2023-06-19T15:42:05.362Z,39808.00
2023-06-19T15:43:05.349Z,46752.00
2023-06-19T15:44:05.321Z,47072.00
2023-06-19T15:45:05.337Z,45472.00
2023-06-19T15:46:05.322Z,44800.00
2023-06-19T15:47:05.280Z,46144.00
2023-06-19T15:48:05.349Z,46848.00
2023-06-19T15:49:05.250Z,47328.00
2023-06-19T15:50:05.254Z,47584.00
2023-06-19T15:51:05.234Z,48160.00
2023-06-19T15:52:05.244Z,48064.00
2023-06-19T15:53:05.215Z,32224.00
2023-06-19T15:54:05.208Z,12232.00
2023-06-19T15:55:05.190Z,27360.00
2023-06-19T15:56:05.187Z,40448.00
2023-06-19T15:57:05.168Z,14088.00
2023-06-19T15:58:05.160Z,32480.00
2023-06-19T15:59:05.142Z,24544.00
2023-06-19T16:00:05.123Z,31520.00
2023-06-19T16:01:05.128Z,20352.00
2023-06-19T16:02:05.172Z,27360.00
2023-06-19T16:03:05.712Z,25920.00
2023-06-19T16:04:05.345Z,38496.00
2023-06-19T16:05:05.083Z,38912.00
2023-06-19T16:06:08.607Z,40128.00
2023-06-19T16:07:05.043Z,39264.00
2023-06-19T16:08:05.034Z,38464.00
2023-06-19T16:09:05.012Z,37024.00
2023-06-19T16:10:05.014Z,36800.00
2023-06-19T16:11:04.993Z,37408.00